Flight Track Log - Related Links

Times and Time Zones

All times are in EDT time to prevent confusion due to time zone crossing. See the BOE3 flight status page for this flight to view local times or setup timezone preferences in your user account.

Time Position Orientation Groundspeed Altitude Reporting Facility
EDT Latitude Longitude Course Direction KTS MPH feet Rate Location/Type
Sun 10:08:06 AM 47.5108 -122.2910 147° Southeast 170 196 1,200  Level Seattle Center
Sun 10:09:13 AM 47.4558 -122.2390 156° South 229 264 3,500 1,594 Climbing Seattle Center
Sun 10:10:14 AM 47.3922 -122.1970 175° South 254 292 4,600 1,587 Climbing Seattle Center
Sun 10:11:14 AM 47.3194 -122.1880 165° South 265 305 6,700 2,529 Climbing Seattle Center
Sun 10:12:15 AM 47.2472 -122.1600 169° South 274 315 9,700 2,727 Climbing Seattle Center
Sun 10:13:15 AM 47.1686 -122.1380 169° South 290 334 12,200 2,064 Climbing Seattle Center
Sun 10:14:20 AM 47.0589 -122.1060 170° South 379 436 14,000 2,016 Climbing Seattle Center
Sun 10:15:20 AM 46.9594 -122.0810 169° South 368 423 16,400 2,450 Climbing Seattle Center
Sun 10:16:20 AM 46.8581 -122.0520 170° South 368 423 18,900 2,550 Climbing Seattle Center
Sun 10:17:20 AM 46.7503 -122.0230 168° South 380 437 21,500 2,650 Climbing Seattle Center
Sun 10:18:20 AM 46.6364 -121.9890 131° Southeast 404 465 24,200 2,150 Climbing Seattle Center
Sun 10:19:20 AM 46.5597 -121.8590 117° Southeast 390 449 25,800 1,400 Climbing Seattle Center
Sun 10:20:20 AM 46.5000 -121.6910 120° Southeast 421 484 27,000 600 Climbing Seattle Center
Sun 10:21:20 AM 46.4381 -121.5350 120° Southeast 435 501 27,000  Level Seattle Center
Sun 10:22:20 AM 46.3778 -121.3830 122° Southeast 440 506 27,000  Level Seattle Center
Sun 10:23:20 AM 46.3131 -121.2310 120° Southeast 440 506 27,000  Level Seattle Center
Sun 10:24:20 AM 46.2525 -121.0790 120° Southeast 440 506 27,000  Level Seattle Center
Sun 10:25:20 AM 46.1914 -120.9250 121° Southeast 440 506 27,000  Level Seattle Center
Sun 10:26:20 AM 46.1264 -120.7710 120° Southeast 440 506 27,000  Level Seattle Center
Sun 10:27:21 AM 46.0650 -120.6200 120° Southeast 440 506 27,000  Level Seattle Center
Sun 10:28:20 AM 46.0036 -120.4700 121° Southeast 440 506 27,000  Level Seattle Center
Sun 10:29:20 AM 45.9397 -120.3200 121° Southeast 435 501 27,000  Level Seattle Center
Sun 10:30:20 AM 45.8778 -120.1700 122° Southeast 435 501 27,000  Level Seattle Center
Sun 10:31:20 AM 45.8136 -120.0210 121° Southeast 435 501 27,000  Level Seattle Center
Sun 10:32:20 AM 45.7514 -119.8720 121° Southeast 435 501 27,000  Level Seattle Center
Sun 10:33:20 AM 45.6869 -119.7200 123° Southeast 435 501 27,000  Level Seattle Center
Sun 10:34:20 AM 45.6200 -119.5720 121° Southeast 435 501 27,000  Level Seattle Center
Sun 10:35:20 AM 45.5572 -119.4210 122° Southeast 435 501 27,000  Level Seattle Center
Sun 10:36:20 AM 45.4919 -119.2730 117° Southeast 435 501 27,000  Level Seattle Center
Sun 11:21:14 AM 42.8731 -112.6490 114° Southeast 444 511 27,000  Level Salt Center
Sun 11:22:14 AM 42.8275 -112.5120 115° Southeast 444 511 27,000  Level Salt Center
Sun 11:23:14 AM 42.7756 -112.3610 114° Southeast 439 505 27,000  Level Salt Center
Sun 11:24:15 AM 42.7214 -112.1920 116° Southeast 432 497 27,000  Level Salt Center
Sun 11:25:14 AM 42.6711 -112.0500 114° Southeast 446 513 27,000  Level Salt Center
Sun 11:26:14 AM 42.6147 -111.8820 115° Southeast 440 506 27,000  Level Salt Center
Sun 11:27:14 AM 42.5639 -111.7350 115° Southeast 440 506 27,000  Level Salt Center
Sun 11:28:14 AM 42.5111 -111.5820 115° Southeast 445 512 27,000  Level Salt Center
Sun 11:29:14 AM 42.4581 -111.4290 115° Southeast 445 512 27,000  Level Salt Center
Sun 11:30:14 AM 42.4067 -111.2800 115° Southeast 440 506 27,000  Level Salt Center
Sun 11:31:14 AM 42.3553 -111.1300 115° Southeast 440 506 27,000  Level Salt Center
Sun 11:32:14 AM 42.3036 -110.9810 118° Southeast 440 506 27,000  Level Salt Center
Sun 11:33:14 AM 42.2478 -110.8380 116° Southeast 423 487 27,000  Level Salt Center
Sun 11:34:14 AM 42.1956 -110.6920 114° Southeast 429 494 27,000  Level Salt Center
Sun 11:35:14 AM 42.1497 -110.5550 116° Southeast 436 502 27,000  Level Salt Center
Sun 11:36:14 AM 42.0889 -110.3900 115° Southeast 442 509 27,000  Level Salt Center
Sun 11:37:14 AM 42.0364 -110.2360 116° Southeast 448 516 27,000  Level Salt Center
Sun 11:38:15 AM 41.9878 -110.1030 116° Southeast 443 510 27,000  Level Salt Center
Sun 11:39:14 AM 41.9350 -109.9550 116° Southeast 443 510 27,000  Level Salt Center
Sun 11:40:14 AM 41.8753 -109.7880 116° Southeast 443 510 27,000  Level Salt Center
Sun 11:41:14 AM 41.8219 -109.6410 117° Southeast 449 517 27,000  Level Salt Center
Sun 11:42:14 AM 41.7706 -109.5060 115° Southeast 449 517 27,000  Level Salt Center
Sun 11:43:14 AM 41.7189 -109.3570 117° Southeast 449 517 27,000  Level Salt Center
Sun 11:44:14 AM 41.6586 -109.1970 115° Southeast 444 511 27,000  Level Salt Center
Sun 11:45:14 AM 41.6044 -109.0450 119° Southeast 444 511 27,000  Level Salt Center
Sun 11:47:26 AM 41.4789 -108.7410 119° Southeast 443 510 27,000  Level Denver Center
Sun 11:48:26 AM 41.4192 -108.6000 118° Southeast 443 510 27,000  Level Denver Center
Sun 11:49:26 AM 41.3553 -108.4400 119° Southeast 443 510 27,000  Level Denver Center
Sun 11:50:26 AM 41.2950 -108.2980 119° Southeast 443 510 27,000  Level Denver Center
Sun 11:51:26 AM 41.2408 -108.1660 118° Southeast 443 510 27,000  Level Denver Center
Sun 11:52:26 AM 41.1844 -108.0240 120° Southeast 443 510 27,000  Level Denver Center
Sun 11:53:26 AM 41.1175 -107.8680 119° Southeast 443 510 27,000  Level Denver Center
Sun 11:54:26 AM 41.0586 -107.7260 119° Southeast 448 516 27,000  Level Denver Center
Sun 11:55:26 AM 41.0039 -107.5960 119° Southeast 443 510 27,000  Level Denver Center
Sun 11:56:26 AM 40.9386 -107.4410 121° Southeast 448 516 27,000  Level Denver Center
Sun 11:57:26 AM 40.8769 -107.3030 119° Southeast 442 509 27,000  Level Denver Center
Sun 11:58:26 AM 40.8156 -107.1590 120° Southeast 442 509 27,000  Level Denver Center
Sun 11:59:26 AM 40.7619 -107.0350 121° Southeast 442 509 27,000  Level Denver Center
Sun 12:00:26 PM 40.7019 -106.9010 119° Southeast 442 509 27,000  Level Denver Center
Sun 12:01:26 PM 40.6419 -106.7610 119° Southeast 442 509 27,000  Level Denver Center
Sun 12:02:26 PM 40.5819 -106.6180 121° Southeast 442 509 27,000  Level Denver Center
Sun 12:03:26 PM 40.5172 -106.4790 119° Southeast 442 509 27,000  Level Denver Center
Sun 12:04:26 PM 40.4506 -106.3230 120° Southeast 443 510 27,000  Level Denver Center
Sun 12:05:26 PM 40.3897 -106.1840 122° Southeast 438 504 27,000  Level Denver Center
Sun 12:06:26 PM 40.3311 -106.0590 119° Southeast 448 516 27,000  Level Denver Center
Sun 12:07:26 PM 40.2700 -105.9130 121° Southeast 448 516 27,000  Level Denver Center
Sun 12:08:26 PM 40.2086 -105.7770 120° Southeast 443 510 27,000  Level Denver Center
Sun 12:09:26 PM 40.1411 -105.6230 121° Southeast 448 516 27,000  Level Denver Center
Sun 12:10:26 PM 40.0772 -105.4830 120° Southeast 441 507 27,000  Level Denver Center
Sun 12:11:26 PM 40.0156 -105.3450 120° Southeast 441 507 27,000  Level Denver Center
Sun 12:12:26 PM 39.9536 -105.2060 119° Southeast 441 507 27,000  Level Denver Center
Sun 12:13:26 PM 39.8936 -105.0660 122° Southeast 441 507 27,000  Level Denver Center
Sun 12:14:26 PM 39.8272 -104.9270 119° Southeast 441 507 27,000  Level Denver Center
Sun 12:15:26 PM 39.7669 -104.7870 121° Southeast 441 507 27,000  Level Denver Center
Sun 12:16:26 PM 39.7108 -104.6650 132° Southeast 441 507 27,000  Level Denver Center
Sun 12:17:26 PM 39.6256 -104.5430 139° Southeast 447 514 27,000  Level Denver Center
Sun 12:18:26 PM 39.5233 -104.4270 138° Southeast 447 514 27,000  Level Denver Center
Sun 12:19:26 PM 39.4317 -104.3200 138° Southeast 447 514 27,000  Level Denver Center
Sun 12:20:26 PM 39.3422 -104.2150 138° Southeast 435 501 27,000  Level Denver Center
Sun 12:21:26 PM 39.2503 -104.1080 139° Southeast 435 501 27,000  Level Denver Center
Sun 12:22:26 PM 39.1564 -104.0020 139° Southeast 440 506 27,000  Level Denver Center
Sun 12:23:26 PM 39.0644 -103.8980 138° Southeast 440 506 27,000  Level Denver Center
Sun 12:24:26 PM 38.9744 -103.7920 139° Southeast 440 506 27,000  Level Denver Center
Sun 12:25:26 PM 38.8822 -103.6890 138° Southeast 440 506 27,000  Level Denver Center
Sun 12:26:26 PM 38.7922 -103.5860 129° Southeast 440 506 27,000  Level Denver Center
Sun 12:27:26 PM 38.7206 -103.4740 128° Southeast 440 506 27,000  Level Denver Center
Sun 12:28:26 PM 38.6442 -103.3470 132° Southeast 454 522 27,000  Level Denver Center
Sun 12:29:26 PM 38.5550 -103.2210 129° Southeast 454 522 27,000  Level Denver Center
Sun 12:30:26 PM 38.4872 -103.1130 132° Southeast 439 505 27,000  Level Denver Center
Sun 12:31:26 PM 38.3958 -102.9820 130° Southeast 444 511 27,000  Level Denver Center
Sun 12:32:26 PM 38.3169 -102.8610 130° Southeast 444 511 27,000  Level Denver Center
Sun 12:36:22 PM 38.0053 -102.3900 131° Southeast 446 513 27,000  Level Kansas Center
Sun 12:37:22 PM 37.9253 -102.2730 129° Southeast 435 501 27,000  Level Kansas Center
Sun 12:38:22 PM 37.8475 -102.1520 131° Southeast 435 501 27,000  Level Kansas Center
Sun 12:39:22 PM 37.7769 -102.0480 130° Southeast 434 499 27,000  Level Kansas Center
Sun 12:40:22 PM 37.6911 -101.9210 130° Southeast 434 499 27,000  Level Kansas Center
Sun 12:41:22 PM 37.6147 -101.8060 131° Southeast 434 499 27,000  Level Kansas Center
Sun 12:42:22 PM 37.5417 -101.7020 131° Southeast 428 493 27,000  Level Kansas Center
Sun 12:43:22 PM 37.4631 -101.5870 130° Southeast 435 501 27,000  Level Kansas Center
Sun 12:44:22 PM 37.3767 -101.4590 129° Southeast 435 501 27,000  Level Kansas Center
Sun 12:45:22 PM 37.3000 -101.3420 131° Southeast 435 501 27,000  Level Kansas Center
Sun 12:46:22 PM 37.2286 -101.2390 132° Southeast 435 501 27,000  Level Kansas Center
Sun 12:47:22 PM 37.1397 -101.1140 131° Southeast 435 501 27,000  Level Kansas Center
Sun 12:48:22 PM 37.0603 -101.0000 128° Southeast 435 501 27,000  Level Kansas Center
Sun 12:49:22 PM 36.9950 -100.8960 127° Southeast 435 501 27,000  Level Kansas Center
Sun 12:50:22 PM 36.9222 -100.7760 130° Southeast 435 501 27,000  Level Kansas Center
Sun 12:51:22 PM 36.8369 -100.6490 129° Southeast 435 501 27,000  Level Kansas Center
Sun 12:52:22 PM 36.7617 -100.5320 128° Southeast 430 495 27,000  Level Kansas Center
Sun 12:53:22 PM 36.6961 -100.4260 128° Southeast 425 489 27,000  Level Kansas Center
Sun 12:54:22 PM 36.6147 -100.2980 129° Southeast 425 489 27,000  Level Kansas Center
Sun 12:55:22 PM 36.5389 -100.1830 129° Southeast 425 489 27,000  Level Kansas Center
Sun 12:56:22 PM 36.4631 -100.0670 128° Southeast 425 489 27,000  Level Kansas Center
Sun 12:57:22 PM 36.3892 -99.9478 125° Southeast 425 489 27,000  Level Kansas Center
Sun 12:58:22 PM 36.3217 -99.8272 118° Southeast 425 489 27,000  Level Kansas Center
Sun 01:00:33 PM 36.2050 -99.5531 115° Southeast 456 525 27,000  Level Fort Center
Sun 01:01:32 PM 36.1492 -99.4053 119° Southeast 444 511 27,000  Level Fort Center
Sun 01:02:32 PM 36.0969 -99.2883 119° Southeast 439 505 27,000  Level Fort Center
Sun 01:03:33 PM 36.0383 -99.1586 118° Southeast 439 505 27,000  Level Fort Center
Sun 01:04:33 PM 35.9736 -99.0111 118° Southeast 446 513 27,000  Level Fort Center
Sun 01:05:33 PM 35.9167 -98.8794 118° Southeast 446 513 27,000  Level Fort Center
Sun 01:06:33 PM 35.8600 -98.7453 119° Southeast 436 502 27,000  Level Fort Center
Sun 01:07:32 PM 35.8008 -98.6136 116° Southeast 436 502 27,000  Level Fort Center
Sun 01:08:32 PM 35.7458 -98.4775 114° Southeast 442 509 27,000  Level Fort Center
Sun 01:09:33 PM 35.7050 -98.3669 111° Southeast 436 502 27,000  Level Fort Center
Sun 01:10:33 PM 35.6519 -98.1978 114° Southeast 436 502 27,000  Level Fort Center
Sun 01:11:33 PM 35.6025 -98.0594 113° Southeast 442 509 27,000  Level Fort Center
Sun 01:12:33 PM 35.5533 -97.9161 113° Southeast 442 509 27,000  Level Fort Center
Sun 01:13:44 PM 35.5036 -97.7706 113° Southeast 447 514 27,000  Level Fort Center
Sun 01:14:45 PM 35.4436 -97.5969 115° Southeast 453 521 27,000  Level Fort Center
Sun 01:15:45 PM 35.3978 -97.4747 112° Southeast 444 511 27,000  Level Fort Center
Sun 01:16:44 PM 35.3542 -97.3447 115° Southeast 434 499 27,000  Level Fort Center
Sun 01:17:45 PM 35.3058 -97.2150 114° Southeast 422 486 27,000  Level Fort Center
Sun 01:18:44 PM 35.2619 -97.0958 114° Southeast 422 486 27,000  Level Fort Center
Sun 01:19:45 PM 35.2050 -96.9383 113° Southeast 422 486 27,000  Level Fort Center
Sun 01:20:45 PM 35.1692 -96.8344 114° Southeast 422 486 27,000  Level Fort Center
Sun 01:21:45 PM 35.1164 -96.6928 115° Southeast 422 486 27,000  Level Fort Center
Sun 01:22:45 PM 35.0675 -96.5636 114° Southeast 422 486 27,000  Level Fort Center
Sun 01:23:44 PM 35.0208 -96.4350 114° Southeast 422 486 27,000  Level Fort Center
Sun 01:24:45 PM 34.9739 -96.3036 114° Southeast 422 486 27,000  Level Fort Center
Sun 01:25:45 PM 34.9267 -96.1753 116° Southeast 422 486 27,000  Level Fort Center
Sun 01:26:45 PM 34.8753 -96.0469 115° Southeast 422 486 27,000  Level Fort Center
Sun 01:27:45 PM 34.8214 -95.9036 113° Southeast 422 486 27,000  Level Fort Center
Sun 01:28:45 PM 34.7761 -95.7728 115° Southeast 422 486 27,000  Level Fort Center
Sun 01:29:44 PM 34.7264 -95.6450 113° Southeast 422 486 27,000  Level Fort Center
Sun 01:30:57 PM 34.6719 -95.4922 115° Southeast 417 480 27,000  Level Fort Center
Sun 01:31:57 PM 34.6219 -95.3594 116° Southeast 417 480 27,000  Level Fort Center
Sun 01:32:57 PM 34.5697 -95.2322 114° Southeast 423 487 27,000  Level Fort Center
Sun 01:33:57 PM 34.5214 -95.1022 115° Southeast 418 481 27,000  Level Fort Center
Sun 01:34:57 PM 34.4731 -94.9750 114° Southeast 418 481 27,000  Level Fort Center
Sun 01:35:57 PM 34.4247 -94.8456 116° Southeast 418 481 27,000  Level Fort Center
Sun 01:36:57 PM 34.3761 -94.7236 114° Southeast 418 481 27,000  Level Fort Center
Sun 01:37:57 PM 34.3275 -94.5944 116° Southeast 413 475 27,000  Level Fort Center
Sun 01:38:57 PM 34.2767 -94.4681 114° Southeast 413 475 27,000  Level Fort Center
Sun 01:39:56 PM 34.2386 -94.3661 115° Southeast 413 475 27,000  Level Fort Center
Sun 01:40:57 PM 34.1808 -94.2178 115° Southeast 413 475 27,000  Level Fort Center
Sun 01:41:57 PM 34.1314 -94.0917 116° Southeast 413 475 27,000  Level Fort Center
Sun 01:42:57 PM 34.0800 -93.9656 116° Southeast 418 481 27,000  Level Fort Center
Sun 01:43:57 PM 34.0286 -93.8372 115° Southeast 418 481 27,000  Level Fort Center
Sun 01:44:57 PM 33.9811 -93.7142 116° Southeast 418 481 27,000  Level Fort Center
Sun 01:45:57 PM 33.9294 -93.5886 115° Southeast 418 481 27,000  Level Fort Center
Sun 01:46:56 PM 33.8794 -93.4608 115° Southeast 418 481 27,000  Level Fort Center
Sun 01:47:57 PM 33.8317 -93.3378 117° Southeast 418 481 27,000  Level Fort Center
Sun 01:48:57 PM 33.7819 -93.2178 117° Southeast 418 481 27,000  Level Fort Center
Sun 01:49:57 PM 33.7297 -93.0928 116° Southeast 413 475 27,000  Level Fort Center
Sun 01:50:57 PM 33.6794 -92.9706 117° Southeast 413 475 27,000  Level Fort Center
Sun 01:51:57 PM 33.6269 -92.8461 116° Southeast 413 475 27,000  Level Fort Center
Sun 01:54:01 PM 33.5244 -92.5950 116° Southeast 409 471 27,000  Level Memphis Center
Sun 01:55:01 PM 33.4744 -92.4717 116° Southeast 409 471 27,000  Level Memphis Center
Sun 01:56:01 PM 33.4242 -92.3508 117° Southeast 409 471 27,000  Level Memphis Center
Sun 01:57:01 PM 33.3739 -92.2303 117° Southeast 409 471 27,000  Level Memphis Center
Sun 01:58:01 PM 33.3236 -92.1100 115° Southeast 409 471 27,000  Level Memphis Center
Sun 01:59:01 PM 33.2750 -91.9872 123° Southeast 412 474 27,000  Level Memphis Center
Sun 02:00:01 PM 33.2158 -91.8769 116° Southeast 419 482 27,000  Level Memphis Center
Sun 02:01:01 PM 33.1672 -91.7569 116° Southeast 419 482 27,000  Level Memphis Center
Sun 02:02:01 PM 33.1183 -91.6372 118° Southeast 408 470 27,000  Level Memphis Center
Sun 02:03:01 PM 33.0592 -91.5025 116° Southeast 413 475 27,000  Level Memphis Center
Sun 02:04:01 PM 33.0100 -91.3828 117° Southeast 407 468 27,000  Level Memphis Center
Sun 02:05:01 PM 32.9589 -91.2633 117° Southeast 407 468 27,000  Level Memphis Center
Sun 02:06:01 PM 32.9075 -91.1417 118° Southeast 412 474 27,000  Level Memphis Center
Sun 02:07:01 PM 32.8558 -91.0250 117° Southeast 412 474 27,000  Level Memphis Center
Sun 02:08:01 PM 32.8064 -90.9083 127° Southeast 412 474 27,000  Level Memphis Center
Sun 02:09:01 PM 32.7400 -90.8019 133° Southeast 412 474 27,000  Level Memphis Center
Sun 02:10:01 PM 32.6631 -90.7053 134° Southeast 407 468 27,000  Level Memphis Center
Sun 02:11:01 PM 32.5839 -90.6064 133° Southeast 407 468 27,000  Level Memphis Center
Sun 02:12:01 PM 32.5089 -90.5100 134° Southeast 401 461 27,000  Level Memphis Center
Sun 02:13:01 PM 32.4319 -90.4164 134° Southeast 396 456 27,000  Level Memphis Center
Sun 02:14:01 PM 32.3547 -90.3203 134° Southeast 396 456 27,000  Level Memphis Center
Sun 02:15:01 PM 32.2772 -90.2247 134° Southeast 396 456 27,000  Level Memphis Center
Sun 02:16:01 PM 32.2061 -90.1389 134° Southeast 401 461 27,000  Level Memphis Center
Sun 02:17:01 PM 32.1286 -90.0433 134° Southeast 401 461 27,000  Level Memphis Center
Sun 02:18:01 PM 32.0492 -89.9456 134° Southeast 401 461 27,000  Level Memphis Center
Sun 02:19:01 PM 31.9714 -89.8506 134° Southeast 401 461 27,000  Level Memphis Center
Sun 02:20:01 PM 31.8958 -89.7578 135° Southeast 401 461 27,000  Level Memphis Center
Sun 02:22:31 PM 31.6897 -89.5147 134° Southeast 416 479 27,000  Level Houston Center
Sun 02:23:31 PM 31.6111 -89.4189 135° Southeast 410 472 27,000  Level Houston Center
Sun 02:24:31 PM 31.5322 -89.3258 134° Southeast 403 464 27,000  Level Houston Center
Sun 02:25:31 PM 31.4533 -89.2303 122° Southeast 403 464 27,000  Level Houston Center
Sun 02:26:31 PM 31.3928 -89.1175 119° Southeast 403 464 27,000  Level Houston Center
Sun 02:27:31 PM 31.3364 -88.9975 119° Southeast 409 471 27,000  Level Houston Center
Sun 02:28:31 PM 31.2819 -88.8822 119° Southeast 409 471 27,000  Level Houston Center
Sun 02:29:31 PM 31.2272 -88.7675 119° Southeast 409 471 27,000  Level Houston Center
Sun 02:30:31 PM 31.1706 -88.6503 117° Southeast 409 471 27,000  Level Houston Center
Sun 02:31:31 PM 31.1178 -88.5306 120° Southeast 409 471 27,000 -450 Level Houston Center
Sun 02:32:31 PM 31.0586 -88.4111 120° Southeast 414 476 26,100 -878 Descending Houston Center
Sun 02:34:56 PM 30.9147 -88.1200 119° Southeast 463 533 24,000 -615 Descending Jacksonville Center
Sun 02:35:56 PM 30.8533 -87.9931 119° Southeast 457 526 24,000  Level Jacksonville Center
Sun 02:36:56 PM 30.7936 -87.8667 104° East 457 526 24,000  Level Jacksonville Center
Sun 02:37:56 PM 30.7633 -87.7272 85° East 443 510 24,000 -350 Level Jacksonville Center
Sun 02:38:56 PM 30.7731 -87.5828 85° East 444 511 23,300 -2,150 Descending Jacksonville Center
Sun 02:39:56 PM 30.7847 -87.4333 87° East 449 517 19,700 -3,100 Descending Jacksonville Center
Sun 02:40:56 PM 30.7917 -87.2911 86° East 449 517 17,100 -2,850 Descending Jacksonville Center
Sun 02:41:56 PM 30.8008 -87.1489 86° East 449 517 14,000 -2,650 Descending Jacksonville Center
Sun 02:42:56 PM 30.8094 -87.0164 88° East 421 484 11,800 -1,500 Descending Jacksonville Center
Sun 02:43:56 PM 30.8133 -86.8956 84° East 388 447 11,000 -400 Descending Jacksonville Center
Sun 02:44:56 PM 30.8228 -86.7894 86° East 338 389 11,000  Level Jacksonville Center
Sun 02:45:56 PM 30.8275 -86.7028 117° Southeast 289 333 11,000  Level Jacksonville Center
Sun 02:46:56 PM 30.7922 -86.6239 116° Southeast 241 277 11,000 -2,450 Level Jacksonville Center
Sun 02:47:56 PM 30.7592 -86.5453 138° Southeast 253 291 6,100 -3,700 Descending Jacksonville Center
Sun 02:48:56 PM 30.7064 -86.4900 165° South 259 298 3,600 -1,750 Descending Jacksonville Center
Sun 02:49:56 PM 30.6464 -86.4708 192° South 225 259 2,600 -900 Descending Jacksonville Center
Sun 02:50:56 PM 30.5958 -86.4833 197° South 200 230 1,800 -800 Descending Jacksonville Center
Sun 02:51:56 PM 30.5517 -86.4986 197° South 184 212 1,000 -800 Descending Jacksonville Center

Login

Don't have an account? Register now (free) for customized features, flight alerts, and more!